createdAt,value
2022-10-24T00:04:08.374Z,15.17
2022-10-24T00:09:08.391Z,15.54
2022-10-24T00:14:08.382Z,15.82
2022-10-24T00:19:08.349Z,15.79
2022-10-24T00:24:08.321Z,15.94
2022-10-24T00:29:10.181Z,16.04
2022-10-24T00:34:07.974Z,16.03
2022-10-24T00:39:08.109Z,16.09
2022-10-24T00:44:07.780Z,16.12
2022-10-24T00:49:07.860Z,16.12
2022-10-24T00:54:07.960Z,16.11
2022-10-24T00:59:10.744Z,16.07
2022-10-24T01:04:07.644Z,15.85
2022-10-24T01:09:08.685Z,16.06
2022-10-24T01:14:07.522Z,16.11
2022-10-24T01:19:07.580Z,16.01
2022-10-24T01:24:07.684Z,16.22
2022-10-24T01:29:07.448Z,15.99
2022-10-24T01:34:07.379Z,15.93
2022-10-24T01:39:07.418Z,15.61
2022-10-24T03:03:09.298Z,16.34
2022-10-24T03:08:08.926Z,16.40
2022-10-24T03:13:08.948Z,16.38
2022-10-24T03:18:09.081Z,16.23
2022-10-24T03:23:08.957Z,16.20
2022-10-24T03:28:08.560Z,16.42
2022-10-24T03:33:08.663Z,16.78
2022-10-24T03:38:08.478Z,16.45
2022-10-24T03:43:08.441Z,16.41
2022-10-24T03:48:08.404Z,16.44
2022-10-24T03:53:11.271Z,16.25
2022-10-24T03:58:08.161Z,16.03
2022-10-24T04:03:08.383Z,16.16
2022-10-24T04:08:07.989Z,16.40
2022-10-24T04:13:08.016Z,16.30
2022-10-24T04:18:07.888Z,16.42
2022-10-24T04:23:07.844Z,16.45
2022-10-24T04:28:07.959Z,16.48
2022-10-24T04:33:07.818Z,16.52
2022-10-24T04:38:07.734Z,16.41
2022-10-24T04:43:07.574Z,16.58
2022-10-24T04:48:07.659Z,16.56
2022-10-24T04:53:10.452Z,16.56
2022-10-24T04:58:07.399Z,16.49
2022-10-24T05:03:07.301Z,16.77
2022-10-24T05:08:07.209Z,16.73
2022-10-24T05:13:07.200Z,16.70
2022-10-24T05:18:07.248Z,16.68
2022-10-24T05:23:08.113Z,16.60
2022-10-24T05:28:06.969Z,16.75
2022-10-24T05:33:06.949Z,16.98
2022-10-24T05:38:06.874Z,17.04
2022-10-24T05:43:06.862Z,16.95
2022-10-24T05:48:06.754Z,16.96
2022-10-24T05:53:09.810Z,16.75
2022-10-24T05:58:06.721Z,16.88
2022-10-24T06:03:06.472Z,16.92
2022-10-24T06:08:06.510Z,16.80
2022-10-24T06:13:06.466Z,16.95
2022-10-24T06:18:06.532Z,17.07
2022-10-24T06:23:06.311Z,16.89
2022-10-24T06:33:06.139Z,17.18
2022-10-24T06:38:06.094Z,17.36
2022-10-24T06:43:06.164Z,17.43
2022-10-24T06:48:06.084Z,17.17
2022-10-24T06:58:39.144Z,17.62
2022-10-24T07:03:39.210Z,17.25
2022-10-24T07:08:39.122Z,17.44
2022-10-24T07:13:39.142Z,17.35
2022-10-24T07:21:05.598Z,17.44
2022-10-24T07:27:19.161Z,17.67
2022-10-24T07:34:20.571Z,18.12
2022-10-24T07:39:19.759Z,18.19
2022-10-24T07:44:19.747Z,18.50
2022-10-24T07:49:19.615Z,18.42
2022-10-24T07:54:19.614Z,18.47
2022-10-24T07:59:40.749Z,18.46
2022-10-24T08:04:20.439Z,18.55
2022-10-24T08:09:19.407Z,18.70
2022-10-24T08:14:19.271Z,18.77
2022-10-24T08:19:19.166Z,18.52
2022-10-24T08:24:22.218Z,19.05
2022-10-24T08:29:19.211Z,18.99
2022-10-24T08:34:19.060Z,19.69
2022-10-24T08:39:18.925Z,19.73
2022-10-24T08:44:19.076Z,19.48
2022-10-24T08:49:18.782Z,19.42
2022-10-24T08:54:18.754Z,19.50
2022-10-24T08:59:18.657Z,19.53
2022-10-24T09:04:18.663Z,19.63
2022-10-24T09:09:18.486Z,19.70
2022-10-24T09:14:18.687Z,19.75
2022-10-24T09:19:18.409Z,19.55
2022-10-24T09:24:21.349Z,19.73
2022-10-24T09:29:18.311Z,19.90
2022-10-24T09:34:18.236Z,20.03
2022-10-24T09:39:18.228Z,20.16
2022-10-24T09:44:18.157Z,19.97
2022-10-24T09:49:18.804Z,19.69
2022-10-24T09:54:18.169Z,19.98
2022-10-24T09:59:17.898Z,19.79
2022-10-24T10:04:17.854Z,20.31
2022-10-24T10:09:17.679Z,19.53
2022-10-24T10:14:17.655Z,20.02
2022-10-24T10:19:17.594Z,19.78
2022-10-24T10:24:20.605Z,20.15
2022-10-24T10:29:17.616Z,19.97
2022-10-24T10:34:20.425Z,20.20
2022-10-24T10:39:17.354Z,20.47
2022-10-24T10:44:17.250Z,19.78
2022-10-24T10:49:17.155Z,20.05
2022-10-24T10:54:17.425Z,19.78
2022-10-24T10:59:17.055Z,19.97
2022-10-24T11:04:17.084Z,20.21
2022-10-24T11:09:17.199Z,19.97
2022-10-24T11:14:16.940Z,20.13
2022-10-24T11:19:16.830Z,20.31
2022-10-24T11:24:19.760Z,20.18
2022-10-24T11:29:16.679Z,19.88
2022-10-24T11:34:24.684Z,20.64
2022-10-24T11:39:16.533Z,20.05
2022-10-24T11:44:16.476Z,20.18
2022-10-24T11:51:44.784Z,20.54
2022-10-24T11:58:01.792Z,20.74
2022-10-24T12:04:20.573Z,20.83
2022-10-24T12:09:19.350Z,20.68
2022-10-24T12:14:19.437Z,20.69
2022-10-24T12:19:19.231Z,20.42
2022-10-24T12:24:19.199Z,20.64
2022-10-24T12:29:19.218Z,20.81
2022-10-24T12:34:19.050Z,20.65
2022-10-24T12:39:19.028Z,20.46
2022-10-24T12:44:18.908Z,20.49
2022-10-24T12:49:19.444Z,20.06
2022-10-24T12:54:21.790Z,20.28
2022-10-24T12:59:18.842Z,19.63
2022-10-24T13:04:18.684Z,20.23
2022-10-24T13:09:18.722Z,20.39
2022-10-24T13:14:18.623Z,20.24
2022-10-24T13:19:18.614Z,20.42
2022-10-24T13:24:18.645Z,20.58
2022-10-24T13:29:18.301Z,20.65
2022-10-24T13:34:27.121Z,20.90
2022-10-24T13:39:27.296Z,20.96
2022-10-24T13:45:37.357Z,20.68
2022-10-24T13:50:37.379Z,20.54
2022-10-24T13:55:45.000Z,20.56
2022-10-24T14:00:37.106Z,20.33
2022-10-24T14:05:37.101Z,20.27
2022-10-24T14:10:36.911Z,20.53
2022-10-24T14:15:36.996Z,20.31
2022-10-24T14:20:36.924Z,20.41
2022-10-24T14:25:36.820Z,20.33
2022-10-24T14:30:36.661Z,20.35
2022-10-24T14:35:39.675Z,20.61
2022-10-24T14:40:36.624Z,20.20
2022-10-24T14:45:36.499Z,20.41
2022-10-24T14:50:36.368Z,20.15
2022-10-24T14:55:36.292Z,20.35
2022-10-24T15:00:36.321Z,20.16
2022-10-24T15:05:36.169Z,20.68
2022-10-24T15:10:36.148Z,19.91
2022-10-24T15:15:36.080Z,20.33
2022-10-24T15:20:36.025Z,20.35
2022-10-24T15:25:39.221Z,19.97
2022-10-24T15:30:37.176Z,20.02
2022-10-24T15:35:38.871Z,20.09
2022-10-24T15:40:35.833Z,19.40
2022-10-24T15:45:35.756Z,19.66
2022-10-24T15:50:35.676Z,19.48
2022-10-24T15:55:35.626Z,19.29
2022-10-24T16:00:36.618Z,18.90
2022-10-24T16:05:35.506Z,18.55
2022-10-24T16:10:35.329Z,18.36
2022-10-24T16:15:35.223Z,18.18
2022-10-24T16:20:44.247Z,18.36
2022-10-24T16:25:35.035Z,17.78
2022-10-24T16:30:36.532Z,17.87
2022-10-24T16:35:37.999Z,18.03
2022-10-24T16:40:34.968Z,17.84
2022-10-24T16:45:34.973Z,18.22
2022-10-24T16:50:34.730Z,18.25
2022-10-24T16:55:34.693Z,18.31
2022-10-24T17:00:34.652Z,18.29
2022-10-24T17:05:34.746Z,18.17
2022-10-24T17:10:34.619Z,18.17
2022-10-24T17:15:34.458Z,17.92
2022-10-24T17:20:34.350Z,18.12
2022-10-24T17:26:52.144Z,18.18
2022-10-24T17:32:00.659Z,18.43
2022-10-24T17:36:51.804Z,17.81
2022-10-24T17:41:51.870Z,17.94
2022-10-24T17:46:57.462Z,17.99
2022-10-24T17:51:52.451Z,17.71
2022-10-24T17:56:52.334Z,17.36
2022-10-24T18:01:51.790Z,17.32
2022-10-24T18:06:51.580Z,17.29
2022-10-24T18:11:51.485Z,17.08
2022-10-24T18:16:54.605Z,16.74
2022-10-24T18:23:42.262Z,16.62
2022-10-24T18:28:41.897Z,16.48
2022-10-24T18:35:11.700Z,16.53
2022-10-24T18:40:10.825Z,16.15
2022-10-24T18:45:10.767Z,16.16
2022-10-24T18:50:10.517Z,15.99
2022-10-24T18:55:10.506Z,16.14
2022-10-24T19:00:10.577Z,16.34
2022-10-24T19:05:10.312Z,16.26
2022-10-24T19:10:10.219Z,16.52
2022-10-24T19:15:10.298Z,16.77
2022-10-24T19:20:10.072Z,16.88
2022-10-24T19:25:13.438Z,17.04
2022-10-24T19:30:09.984Z,16.92
2022-10-24T19:35:10.108Z,17.47
2022-10-24T19:40:09.929Z,17.11
2022-10-24T19:45:10.021Z,17.10
2022-10-24T19:50:09.684Z,17.00
2022-10-24T19:55:10.042Z,16.92
2022-10-24T20:00:09.951Z,17.04
2022-10-24T20:05:10.411Z,16.80
2022-10-24T20:10:09.523Z,16.77
2022-10-24T20:15:09.420Z,16.60
2022-10-24T20:20:09.382Z,16.58
2022-10-24T20:25:12.657Z,16.55
2022-10-24T20:30:09.220Z,16.20
2022-10-24T20:35:09.166Z,16.37
2022-10-24T20:40:09.064Z,16.53
2022-10-24T20:46:27.089Z,16.44
2022-10-24T20:51:25.914Z,16.30
2022-10-24T20:56:27.193Z,16.04
2022-10-24T21:01:33.480Z,16.27
2022-10-24T21:06:25.897Z,15.79
2022-10-24T21:11:33.760Z,15.74
2022-10-24T21:16:25.576Z,15.38
2022-10-24T21:21:25.556Z,15.41
2022-10-24T21:26:25.486Z,15.52
2022-10-24T21:31:25.435Z,15.46
2022-10-24T21:36:28.689Z,15.42
2022-10-24T21:41:25.402Z,15.38
2022-10-24T21:46:25.390Z,15.60
2022-10-24T21:51:25.122Z,15.66
2022-10-24T21:56:25.139Z,15.60
2022-10-24T22:01:25.218Z,15.46
2022-10-24T22:06:24.975Z,15.26
2022-10-24T22:11:24.908Z,15.48
2022-10-24T22:16:24.817Z,15.64
2022-10-24T22:21:24.862Z,15.52
2022-10-24T22:26:24.689Z,15.35
2022-10-24T22:31:24.595Z,15.35
2022-10-24T22:36:27.594Z,15.41
2022-10-24T22:41:24.484Z,15.12
2022-10-24T22:46:24.399Z,15.11
2022-10-24T22:51:24.495Z,14.75
2022-10-24T22:56:24.461Z,14.61
2022-10-24T23:01:24.446Z,14.47
2022-10-24T23:06:24.331Z,14.50
2022-10-24T23:11:24.079Z,14.52
2022-10-24T23:16:24.150Z,14.50
2022-10-24T23:21:23.914Z,14.50
2022-10-24T23:26:23.984Z,14.25
2022-10-24T23:31:23.825Z,14.27
2022-10-24T23:36:34.544Z,14.28
2022-10-24T23:43:13.810Z,14.35
2022-10-24T23:48:13.843Z,14.53
2022-10-24T23:53:13.789Z,14.38
2022-10-24T23:58:13.676Z,14.32
